首页
METAR-TAF:

METAR-TAF

机场 :

St. Augustine Airport

聖奧古斯丁, 佛罗里达州, 美国

纬度: 29-57-33N, 经度: 081-20-23W, 海拔: 3米

当前天气观测

该预报发布于49分钟前的10:56 UTC
风速7节,风向西南
温度 24°C
湿度 94%
气压 1015 hPa
能見度: 16.1公里
阴天层高于600英尺

METAR: KSGJ 201056Z 22007KT 10SM OVC006 24/23 A2998 RMK AO2 CIG 004V009 SLP150 T02390233

时间: 07:45 (11:45 UTC)

预报

该预报发布于16分钟前的11:29 UTC
预报有效从20日的 12点(UTC)到 21日的 12点(UTC)
风速13节,风向西转西南,有时为20节阵风
能見度: 10公里
多云层高于800英尺
从 20日的 1300点(UTC)
风速12节,风向西转西南
能見度: 10公里
散云层高于1500英尺
多云层高于2000英尺
从 20日的 1500点(UTC)
风速12节,风向西转西南,有时为22节阵风
能見度: 10公里
散云层高于2000英尺
多云层高于3500英尺, 积雨云.
多云层高于4500英尺
阵雨, 附近有雷暴
从 21日的 0000点(UTC)
风速12节,风向西
能見度: 10公里
少量云层高于2000英尺
多云层高于6000英尺
多云层高于25000英尺
附近有阵雨
从 21日的 0400点(UTC)
风速8节,风向西南
能見度: 10公里
散云层高于2000英尺
多云层高于3000英尺

TAF: KSGJ 201129Z 2012/2112 24013G20KT P6SM BKN008 FM201300 24012KT P6SM SCT015 BKN020 FM201500 25012G22KT P6SM SHRA VCTS SCT020 BKN035CB BKN045 FM210000 26012KT P6SM VCSH FEW020 BKN060 BKN250 FM210400 23008KT P6SM SCT020 BKN030

超过4000个机场的气象观测和天气预报(METAR&TAF报告)。

可查询的气象台以黄色和红色小点在地图上表示。

将鼠标移到小点上方,可查看气象台名称。

然后点击查看天气观测和预报。

如需切换地图:点击带黑十字的绿色按钮放大地图;点击带横线的绿色按钮缩小地图;或者点击绿色箭头查看邻近地区的地图。


METAR-TAF: